createdAt,value
2023-02-16T00:01:21.832Z,96190.03
2023-02-16T00:03:49.445Z,96181.22
2023-02-16T00:06:16.235Z,96179.69
2023-02-16T00:08:44.341Z,96182.31
2023-02-16T00:11:43.192Z,96186.19
2023-02-16T00:14:11.086Z,96184.66
2023-02-16T00:16:38.100Z,96190.91
2023-02-16T00:19:16.577Z,96185.47
2023-02-16T00:21:43.031Z,96177.69
2023-02-16T00:24:09.477Z,96172.84
2023-02-16T00:26:36.615Z,96170.72
2023-02-16T00:29:03.990Z,96171.19
2023-02-16T00:31:31.384Z,96160.38
2023-02-16T00:33:58.797Z,96159.31
2023-02-16T00:36:25.420Z,96148.13
2023-02-16T00:38:51.945Z,96147.38
2023-02-16T00:41:38.899Z,96148.41
2023-02-16T00:44:12.479Z,96146.25
2023-02-16T00:46:39.016Z,96138.44
2023-02-16T00:49:05.429Z,96140.41
2023-02-16T00:51:31.846Z,96138.44
2023-02-16T00:53:58.269Z,96137.09
2023-02-16T00:56:24.650Z,96125.59
2023-02-16T00:58:53.013Z,96122.84
2023-02-16T01:01:25.665Z,96128.97
2023-02-16T01:03:52.268Z,96122.53
2023-02-16T01:06:36.967Z,96124.25
2023-02-16T01:09:45.334Z,96122.78
2023-02-16T01:12:16.250Z,96132.75
2023-02-16T01:14:45.269Z,96123.78
2023-02-16T01:17:12.296Z,96139.69
2023-02-16T01:19:38.860Z,96136.50
2023-02-16T01:22:05.260Z,96134.91
2023-02-16T01:24:31.654Z,96142.16
2023-02-16T01:26:58.043Z,96149.47
2023-02-16T01:29:24.991Z,96147.53
2023-02-16T01:31:57.321Z,96143.38
2023-02-16T01:34:25.019Z,96143.91
2023-02-16T01:36:51.428Z,96140.19
2023-02-16T01:39:20.257Z,96147.53
2023-02-16T01:41:59.442Z,96143.72
2023-02-16T01:44:29.566Z,96140.84
2023-02-16T01:47:00.772Z,96136.56
2023-02-16T01:49:28.017Z,96141.09
2023-02-16T01:51:57.667Z,96150.94
2023-02-16T01:54:38.422Z,96150.22
2023-02-16T01:57:16.877Z,96141.34
2023-02-16T02:00:05.472Z,96141.94
2023-02-16T02:02:42.679Z,96145.69
2023-02-16T02:05:36.153Z,96148.72
2023-02-16T02:08:19.312Z,96147.91
2023-02-16T02:10:54.020Z,96138.25
2023-02-16T02:13:26.194Z,96146.28
2023-02-16T02:15:53.255Z,96140.75
2023-02-16T02:18:19.678Z,96135.53
2023-02-16T02:21:19.144Z,96127.06
2023-02-16T02:24:02.067Z,96129.44
2023-02-16T02:26:54.746Z,96126.78
2023-02-16T02:29:46.346Z,96126.53
2023-02-16T02:32:22.813Z,96124.25
2023-02-16T02:35:07.932Z,96129.06
2023-02-16T02:37:47.319Z,96118.66
2023-02-16T02:40:22.501Z,96128.03
2023-02-16T02:42:59.247Z,96119.22
2023-02-16T02:45:29.886Z,96114.78
2023-02-16T02:47:56.684Z,96114.88
2023-02-16T02:50:37.226Z,96104.09
2023-02-16T02:53:08.060Z,96112.31
2023-02-16T02:55:57.614Z,96125.16
2023-02-16T02:58:45.322Z,96119.06
2023-02-16T03:01:13.633Z,96102.94
2023-02-16T03:03:45.581Z,96114.31
2023-02-16T03:06:16.885Z,96112.44
2023-02-16T03:08:47.770Z,96113.41
2023-02-16T03:11:36.826Z,96111.19
2023-02-16T03:14:08.539Z,96108.81
2023-02-16T03:16:40.903Z,96107.38
2023-02-16T03:19:29.232Z,96109.19
2023-02-16T03:22:15.740Z,96112.81
2023-02-16T03:25:00.986Z,96114.06
2023-02-16T03:27:51.066Z,96110.41
2023-02-16T03:30:19.378Z,96110.78
2023-02-16T03:32:46.339Z,96112.25
2023-02-16T03:35:13.087Z,96114.31
2023-02-16T03:37:40.129Z,96108.78
2023-02-16T03:40:27.690Z,96114.63
2023-02-16T03:42:56.231Z,96118.06
2023-02-16T03:45:23.890Z,96120.91
2023-02-16T03:47:50.380Z,96120.47
2023-02-16T03:50:17.022Z,96121.53
2023-02-16T03:52:43.445Z,96112.28
2023-02-16T03:55:09.947Z,96120.66
2023-02-16T03:57:36.413Z,96123.47
2023-02-16T04:00:03.219Z,96125.09
2023-02-16T04:02:40.106Z,96133.78
2023-02-16T04:05:06.906Z,96133.09
2023-02-16T04:07:33.287Z,96133.69
2023-02-16T04:09:59.691Z,96142.16
2023-02-16T04:12:38.172Z,96134.59
2023-02-16T04:15:07.478Z,96140.63
2023-02-16T04:17:33.996Z,96133.31
2023-02-16T04:20:01.068Z,96146.94
2023-02-16T04:22:27.549Z,96143.81
2023-02-16T04:24:54.001Z,96145.63
2023-02-16T04:27:20.369Z,96145.16
2023-02-16T04:29:46.812Z,96131.41
2023-02-16T04:32:13.297Z,96135.94
2023-02-16T04:34:39.733Z,96142.69
2023-02-16T04:37:06.758Z,96131.72
2023-02-16T04:39:33.506Z,96131.50
2023-02-16T04:41:59.899Z,96136.03
2023-02-16T04:44:26.375Z,96134.78
2023-02-16T04:46:52.803Z,96141.44
2023-02-16T04:49:19.162Z,96145.00
2023-02-16T04:51:45.562Z,96135.31
2023-02-16T04:54:12.832Z,96144.19
2023-02-16T04:56:39.182Z,96138.34
2023-02-16T04:59:05.628Z,96140.00
2023-02-16T05:01:32.086Z,96146.44
2023-02-16T05:03:58.469Z,96146.22
2023-02-16T05:06:24.856Z,96141.56
2023-02-16T05:08:51.429Z,96142.69
2023-02-16T05:11:37.012Z,96142.75
2023-02-16T05:14:21.795Z,96141.94
2023-02-16T05:16:48.392Z,96141.41
2023-02-16T05:19:14.880Z,96147.16
2023-02-16T05:21:41.365Z,96139.91
2023-02-16T05:24:10.485Z,96142.44
2023-02-16T05:26:38.767Z,96150.72
2023-02-16T05:29:05.566Z,96154.03
2023-02-16T05:31:32.404Z,96141.69
2023-02-16T05:33:58.883Z,96142.81
2023-02-16T05:36:25.321Z,96149.25
2023-02-16T05:38:51.715Z,96140.75
2023-02-16T05:41:22.941Z,96158.56
2023-02-16T05:43:50.808Z,96149.38
2023-02-16T05:46:17.382Z,96150.97
2023-02-16T05:48:43.773Z,96156.50
2023-02-16T05:51:10.194Z,96156.06
2023-02-16T05:53:37.706Z,96161.91
2023-02-16T05:56:07.045Z,96165.84
2023-02-16T05:58:34.182Z,96169.16
2023-02-16T06:01:01.488Z,96172.38
2023-02-16T06:03:28.152Z,96171.81
2023-02-16T06:05:55.275Z,96172.16
2023-02-16T06:08:21.975Z,96179.41
2023-02-16T06:10:49.587Z,96177.81
2023-02-16T06:13:16.570Z,96168.97
2023-02-16T06:15:43.231Z,96174.91
2023-02-16T06:18:11.004Z,96186.06
2023-02-16T06:20:37.406Z,96181.13
2023-02-16T06:23:03.979Z,96184.69
2023-02-16T06:25:30.370Z,96192.16
2023-02-16T06:27:56.744Z,96193.31
2023-02-16T06:30:23.302Z,96196.41
2023-02-16T06:32:49.815Z,96190.63
2023-02-16T06:35:16.996Z,96192.81
2023-02-16T06:37:43.662Z,96201.06
2023-02-16T06:40:13.518Z,96202.78
2023-02-16T06:42:40.493Z,96199.78
2023-02-16T06:45:08.078Z,96204.84
2023-02-16T06:47:34.609Z,96201.63
2023-02-16T06:50:01.065Z,96194.41
2023-02-16T06:52:28.444Z,96205.44
2023-02-16T06:54:55.043Z,96204.72
2023-02-16T06:57:21.646Z,96211.03
2023-02-16T06:59:48.364Z,96210.44
2023-02-16T07:02:15.049Z,96207.03
2023-02-16T07:04:41.658Z,96205.69
2023-02-16T07:07:08.425Z,96218.00
2023-02-16T07:09:36.542Z,96220.28
2023-02-16T07:12:03.032Z,96216.69
2023-02-16T07:14:30.738Z,96220.69
2023-02-16T07:16:58.502Z,96219.88
2023-02-16T07:19:24.998Z,96217.19
2023-02-16T07:21:51.484Z,96216.47
2023-02-16T07:24:18.079Z,96220.38
2023-02-16T07:26:45.159Z,96224.53
2023-02-16T07:29:11.591Z,96234.06
2023-02-16T07:31:38.121Z,96233.34
2023-02-16T07:34:04.551Z,96237.91
2023-02-16T07:36:30.966Z,96229.78
2023-02-16T07:38:57.364Z,96228.81
2023-02-16T07:41:23.755Z,96229.00
2023-02-16T07:43:51.022Z,96235.34
2023-02-16T07:46:17.453Z,96243.25
2023-02-16T07:48:46.963Z,96240.91
2023-02-16T07:51:13.684Z,96246.03
2023-02-16T07:53:40.074Z,96241.66
2023-02-16T07:56:06.466Z,96243.44
2023-02-16T07:58:32.892Z,96248.66
2023-02-16T08:01:08.465Z,96253.88
2023-02-16T08:03:34.904Z,96259.50
2023-02-16T08:06:01.763Z,96245.94
2023-02-16T08:08:28.230Z,96258.25
2023-02-16T08:10:54.868Z,96239.50
2023-02-16T08:13:21.576Z,96243.84
2023-02-16T08:15:48.035Z,96250.59
2023-02-16T08:18:15.077Z,96244.47
2023-02-16T08:21:01.474Z,96253.16
2023-02-16T08:23:28.818Z,96261.91
2023-02-16T08:25:58.190Z,96258.56
2023-02-16T08:28:27.724Z,96260.59
2023-02-16T08:30:54.660Z,96259.03
2023-02-16T08:33:21.757Z,96253.13
2023-02-16T08:35:48.645Z,96256.41
2023-02-16T08:38:16.397Z,96254.41
2023-02-16T08:40:47.906Z,96252.19
2023-02-16T08:43:14.329Z,96261.00
2023-02-16T08:45:43.821Z,96257.47
2023-02-16T08:48:11.016Z,96250.50
2023-02-16T08:50:38.111Z,96255.34
2023-02-16T08:53:04.572Z,96256.69
2023-02-16T08:55:30.947Z,96254.16
2023-02-16T08:57:59.981Z,96251.16
2023-02-16T09:00:34.193Z,96254.22
2023-02-16T09:03:01.387Z,96251.47
2023-02-16T09:05:27.793Z,96252.75
2023-02-16T09:07:54.911Z,96254.22
2023-02-16T09:10:22.321Z,96255.63
2023-02-16T09:12:49.083Z,96259.38
2023-02-16T09:15:16.143Z,96250.41
2023-02-16T09:17:42.799Z,96254.69
2023-02-16T09:20:10.239Z,96260.41
2023-02-16T09:22:37.235Z,96254.00
2023-02-16T09:25:06.553Z,96248.53
2023-02-16T09:27:34.022Z,96260.97
2023-02-16T09:30:00.438Z,96263.72
2023-02-16T09:32:28.664Z,96261.63
2023-02-16T09:34:55.371Z,96255.84
2023-02-16T09:37:21.801Z,96262.28
2023-02-16T09:39:48.182Z,96260.19
2023-02-16T09:42:33.492Z,96266.75
2023-02-16T09:45:06.783Z,96259.69
2023-02-16T09:47:36.424Z,96253.44
2023-02-16T09:50:12.717Z,96255.56
2023-02-16T09:52:43.856Z,96255.72
2023-02-16T09:55:14.639Z,96259.53
2023-02-16T09:57:56.325Z,96259.06
2023-02-16T10:00:33.217Z,96259.06
2023-02-16T10:03:06.215Z,96254.84
2023-02-16T10:05:42.894Z,96254.72
2023-02-16T10:08:13.697Z,96261.91
2023-02-16T10:10:47.710Z,96258.56
2023-02-16T10:13:23.192Z,96256.78
2023-02-16T10:15:53.923Z,96265.59
2023-02-16T10:18:27.628Z,96252.88
2023-02-16T10:20:56.092Z,96257.59
2023-02-16T10:23:32.638Z,96257.78
2023-02-16T10:26:06.311Z,96258.09
2023-02-16T10:28:42.326Z,96261.47
2023-02-16T10:31:13.943Z,96252.78
2023-02-16T10:33:43.209Z,96254.03
2023-02-16T10:36:22.252Z,96255.59
2023-02-16T10:38:54.013Z,96258.75
2023-02-16T10:41:32.119Z,96249.25
2023-02-16T10:44:09.198Z,96258.75
2023-02-16T10:46:39.825Z,96252.31
2023-02-16T10:49:11.393Z,96251.22
2023-02-16T10:51:39.758Z,96259.06
2023-02-16T10:54:12.263Z,96248.31
2023-02-16T10:56:48.697Z,96252.81
2023-02-16T10:59:18.909Z,96254.41
2023-02-16T11:01:49.583Z,96225.75
2023-02-16T11:04:37.676Z,96241.59
2023-02-16T11:07:07.697Z,96230.97
2023-02-16T11:09:34.868Z,96245.47
2023-02-16T11:12:02.675Z,96246.47
2023-02-16T11:14:30.788Z,96236.63
2023-02-16T11:17:10.812Z,96237.06
2023-02-16T11:19:38.518Z,96238.31
2023-02-16T11:22:07.959Z,96249.00
2023-02-16T11:24:39.952Z,96233.97
2023-02-16T11:27:14.881Z,96215.72
2023-02-16T11:29:41.969Z,96217.09
2023-02-16T11:32:10.103Z,96213.63
2023-02-16T11:34:40.548Z,96216.59
2023-02-16T11:37:15.716Z,96203.66
2023-02-16T11:39:49.686Z,96216.13
2023-02-16T11:42:26.059Z,96221.66
2023-02-16T11:44:56.366Z,96206.06
2023-02-16T11:47:25.016Z,96187.56
2023-02-16T11:50:18.535Z,96193.22
2023-02-16T11:52:48.100Z,96196.31
2023-02-16T11:55:21.409Z,96186.09
2023-02-16T11:57:48.250Z,96189.44
2023-02-16T12:00:18.700Z,96198.03
2023-02-16T12:03:16.176Z,96177.31
2023-02-16T12:05:55.670Z,96172.97
2023-02-16T12:08:35.271Z,96174.94
2023-02-16T12:11:16.728Z,96165.75
2023-02-16T12:13:54.610Z,96162.66
2023-02-16T12:16:30.103Z,96170.66
2023-02-16T12:19:08.885Z,96161.50
2023-02-16T12:21:40.640Z,96154.84
2023-02-16T12:24:31.334Z,96143.19
2023-02-16T12:27:00.696Z,96154.44
2023-02-16T12:29:38.848Z,96144.31
2023-02-16T12:32:24.512Z,96157.56
2023-02-16T12:35:02.746Z,96138.06
2023-02-16T12:37:36.756Z,96133.44
2023-02-16T12:40:16.342Z,96130.44
2023-02-16T12:43:02.163Z,96135.06
2023-02-16T12:45:34.546Z,96138.34
2023-02-16T12:48:16.718Z,96137.25
2023-02-16T12:50:49.145Z,96129.47
2023-02-16T12:53:21.783Z,96133.47
2023-02-16T12:55:53.615Z,96135.16
2023-02-16T12:58:23.926Z,96115.53
2023-02-16T13:00:51.865Z,96127.31
2023-02-16T13:03:27.213Z,96119.63
2023-02-16T13:06:05.582Z,96118.66
2023-02-16T13:08:39.405Z,96128.47
2023-02-16T13:11:14.516Z,96091.69
2023-02-16T13:13:42.086Z,96110.38
2023-02-16T13:16:29.155Z,96115.03
2023-02-16T13:18:57.832Z,96093.06
2023-02-16T13:21:50.984Z,96099.34
2023-02-16T13:24:31.629Z,96094.25
2023-02-16T13:27:11.931Z,96087.50
2023-02-16T13:30:14.885Z,96084.25
2023-02-16T13:32:58.220Z,96085.38
2023-02-16T13:35:47.105Z,96100.97
2023-02-16T13:38:36.113Z,96094.44
2023-02-16T13:41:28.211Z,96092.91
2023-02-16T13:43:57.913Z,96085.66
2023-02-16T13:46:28.392Z,96084.75
2023-02-16T13:48:55.153Z,96089.72
2023-02-16T13:51:24.794Z,96071.69
2023-02-16T13:53:55.923Z,96086.03
2023-02-16T13:56:32.608Z,96077.88
2023-02-16T13:59:20.289Z,96100.63
2023-02-16T14:01:48.105Z,96087.91
2023-02-16T14:05:00.154Z,96085.00
2023-02-16T14:07:37.229Z,96078.97
2023-02-16T14:10:05.227Z,96079.94
2023-02-16T14:12:37.118Z,96084.25
2023-02-16T14:15:05.018Z,96074.78
2023-02-16T14:17:33.842Z,96072.22
2023-02-16T14:20:04.557Z,96070.25
2023-02-16T14:22:48.107Z,96073.22
2023-02-16T14:25:38.775Z,96071.59
2023-02-16T14:28:34.586Z,96067.25
2023-02-16T14:31:05.028Z,96070.06
2023-02-16T14:33:41.036Z,96064.59
2023-02-16T14:36:14.993Z,96059.41
2023-02-16T14:38:46.404Z,96063.34
2023-02-16T14:41:25.596Z,96055.09
2023-02-16T14:43:58.396Z,96054.88
2023-02-16T14:46:36.890Z,96058.06
2023-02-16T14:49:32.919Z,96073.88
2023-02-16T14:52:38.104Z,96069.53
2023-02-16T14:55:39.182Z,96060.38
2023-02-16T14:58:19.611Z,96071.13
2023-02-16T15:00:52.868Z,96062.97
2023-02-16T15:03:23.464Z,96059.56
2023-02-16T15:05:56.420Z,96074.19
2023-02-16T15:08:24.894Z,96058.81
2023-02-16T15:10:57.656Z,96051.88
2023-02-16T15:13:27.363Z,96070.66
2023-02-16T15:15:56.569Z,96056.91
2023-02-16T15:18:27.962Z,96059.91
2023-02-16T15:20:56.671Z,96056.63
2023-02-16T15:23:25.365Z,96054.13
2023-02-16T15:25:55.839Z,96045.16
2023-02-16T15:28:26.032Z,96058.06
2023-02-16T15:30:56.061Z,96047.25
2023-02-16T15:33:32.098Z,96056.94
2023-02-16T15:36:00.108Z,96053.19
2023-02-16T15:38:30.979Z,96055.03
2023-02-16T15:41:00.279Z,96063.41
2023-02-16T15:43:31.014Z,96061.94
2023-02-16T15:45:59.292Z,96063.16
2023-02-16T15:48:31.385Z,96057.50
2023-02-16T15:51:06.174Z,96055.72
2023-02-16T15:53:41.665Z,96061.38
2023-02-16T15:56:25.003Z,96063.88
2023-02-16T15:58:52.216Z,96065.75
2023-02-16T16:01:31.683Z,96069.41
2023-02-16T16:04:01.403Z,96066.38
2023-02-16T16:06:36.380Z,96077.56
2023-02-16T16:09:07.592Z,96064.00
2023-02-16T16:11:37.513Z,96076.50
2023-02-16T16:14:06.189Z,96066.06
2023-02-16T16:16:33.874Z,96078.72
2023-02-16T16:19:08.468Z,96062.50
2023-02-16T16:21:38.429Z,96063.66
2023-02-16T16:24:06.774Z,96073.41
2023-02-16T16:26:48.915Z,96065.88
2023-02-16T16:29:29.600Z,96073.16
2023-02-16T16:31:56.080Z,96070.59
2023-02-16T16:34:35.043Z,96075.34
2023-02-16T16:37:03.166Z,96080.38
2023-02-16T16:39:31.464Z,96088.50
2023-02-16T16:42:25.538Z,96094.66
2023-02-16T16:44:58.819Z,96088.81
2023-02-16T16:47:32.257Z,96093.25
2023-02-16T16:50:00.759Z,96086.56
2023-02-16T16:52:46.198Z,96092.38
2023-02-16T16:55:27.843Z,96085.16
2023-02-16T16:57:57.079Z,96098.09
2023-02-16T17:00:27.416Z,96087.25
2023-02-16T17:02:53.941Z,96091.66
2023-02-16T17:05:23.052Z,96089.47
2023-02-16T17:07:51.108Z,96085.03
2023-02-16T17:10:19.245Z,96091.00
2023-02-16T17:12:47.455Z,96098.13
2023-02-16T17:15:31.792Z,96098.53
2023-02-16T17:17:59.129Z,96093.91
2023-02-16T17:20:25.858Z,96093.16
2023-02-16T17:22:52.376Z,96088.13
2023-02-16T17:25:19.214Z,96103.84
2023-02-16T17:27:45.719Z,96100.31
2023-02-16T17:30:13.395Z,96103.56
2023-02-16T17:32:40.659Z,96111.41
2023-02-16T17:35:07.802Z,96112.41
2023-02-16T17:37:35.232Z,96109.84
2023-02-16T17:40:01.854Z,96115.91
2023-02-16T17:42:28.459Z,96118.31
2023-02-16T17:44:54.894Z,96107.63
2023-02-16T17:47:21.318Z,96114.00
2023-02-16T17:49:48.400Z,96110.34
2023-02-16T17:52:14.808Z,96117.19
2023-02-16T17:54:41.228Z,96116.56
2023-02-16T17:57:09.253Z,96118.63
2023-02-16T17:59:36.164Z,96112.88
2023-02-16T18:02:02.592Z,96113.19
2023-02-16T18:04:29.082Z,96114.63
2023-02-16T18:06:56.294Z,96111.28
2023-02-16T18:09:23.819Z,96116.88
2023-02-16T18:11:50.217Z,96116.72
2023-02-16T18:14:16.598Z,96107.75
2023-02-16T18:16:43.063Z,96114.78
2023-02-16T18:19:13.520Z,96111.13
2023-02-16T18:21:40.028Z,96109.84
2023-02-16T18:24:07.333Z,96108.88
2023-02-16T18:26:33.854Z,96103.31
2023-02-16T18:29:00.343Z,96102.97
2023-02-16T18:31:26.927Z,96087.78
2023-02-16T18:33:53.479Z,96097.69
2023-02-16T18:36:19.917Z,96103.78
2023-02-16T18:38:46.353Z,96106.81
2023-02-16T18:41:13.610Z,96114.31
2023-02-16T18:43:40.050Z,96118.00
2023-02-16T18:46:07.845Z,96114.00
2023-02-16T18:48:34.711Z,96117.69
2023-02-16T18:51:03.458Z,96112.88
2023-02-16T18:53:29.843Z,96113.84
2023-02-16T18:55:56.244Z,96114.16
2023-02-16T18:58:23.586Z,96108.56
2023-02-16T19:00:50.037Z,96115.44
2023-02-16T19:03:16.520Z,96110.97
2023-02-16T19:05:42.997Z,96119.59
2023-02-16T19:08:09.492Z,96120.72
2023-02-16T19:10:35.938Z,96118.00
2023-02-16T19:13:02.637Z,96123.59
2023-02-16T19:15:29.748Z,96125.34
2023-02-16T19:17:56.207Z,96124.88
2023-02-16T19:20:22.851Z,96122.16
2023-02-16T19:22:49.797Z,96125.50
2023-02-16T19:25:16.543Z,96123.75
2023-02-16T19:27:43.523Z,96118.97
2023-02-16T19:30:11.008Z,96128.38
2023-02-16T19:32:40.246Z,96129.69
2023-02-16T19:35:07.495Z,96128.69
2023-02-16T19:37:33.974Z,96125.00
2023-02-16T19:40:00.431Z,96119.53
2023-02-16T19:42:26.966Z,96127.41
2023-02-16T19:44:53.665Z,96117.00
2023-02-16T19:47:20.076Z,96126.94
2023-02-16T19:49:47.111Z,96125.00
2023-02-16T19:52:13.583Z,96118.94
2023-02-16T19:54:39.966Z,96118.78
2023-02-16T19:57:06.465Z,96131.56
2023-02-16T19:59:32.981Z,96130.75
2023-02-16T20:01:59.612Z,96131.25
2023-02-16T20:04:26.088Z,96129.66
2023-02-16T20:06:53.675Z,96122.13
2023-02-16T20:09:21.192Z,96127.88
2023-02-16T20:11:48.013Z,96125.47
2023-02-16T20:14:14.497Z,96126.94
2023-02-16T20:16:40.970Z,96130.28
2023-02-16T20:19:07.426Z,96129.31
2023-02-16T20:21:34.099Z,96120.38
2023-02-16T20:24:03.368Z,96116.53
2023-02-16T20:26:34.279Z,96131.75
2023-02-16T20:29:01.000Z,96124.69
2023-02-16T20:31:32.590Z,96130.13
2023-02-16T20:33:59.628Z,96119.84
2023-02-16T20:36:26.964Z,96119.69
2023-02-16T20:38:56.350Z,96121.28
2023-02-16T20:41:23.741Z,96116.97
2023-02-16T20:43:50.540Z,96124.19
2023-02-16T20:46:17.514Z,96107.56
2023-02-16T20:48:45.760Z,96116.69
2023-02-16T20:51:14.625Z,96116.53
2023-02-16T20:53:41.466Z,96110.13
2023-02-16T20:56:13.892Z,96105.63
2023-02-16T20:58:42.654Z,96115.88
2023-02-16T21:01:13.582Z,96100.00
2023-02-16T21:03:40.094Z,96091.34
2023-02-16T21:06:06.925Z,96094.22
2023-02-16T21:08:33.565Z,96102.50
2023-02-16T21:11:00.041Z,96111.66
2023-02-16T21:13:26.924Z,96098.06
2023-02-16T21:15:54.098Z,96093.91
2023-02-16T21:18:20.773Z,96103.94
2023-02-16T21:20:47.172Z,96094.88
2023-02-16T21:23:13.681Z,96097.84
2023-02-16T21:25:40.210Z,96090.31
2023-02-16T21:28:06.652Z,96098.81
2023-02-16T21:30:33.816Z,96102.50
2023-02-16T21:33:00.881Z,96103.44
2023-02-16T21:35:27.365Z,96099.28
2023-02-16T21:37:53.834Z,96094.94
2023-02-16T21:40:38.735Z,96098.13
2023-02-16T21:43:05.100Z,96094.72
2023-02-16T21:45:31.618Z,96087.19
2023-02-16T21:48:16.328Z,96078.44
2023-02-16T21:50:43.638Z,96082.94
2023-02-16T21:53:10.636Z,96087.72
2023-02-16T21:55:55.970Z,96084.78
2023-02-16T21:58:23.816Z,96090.84
2023-02-16T22:00:51.419Z,96088.28
2023-02-16T22:03:19.651Z,96083.34
2023-02-16T22:05:46.744Z,96082.38
2023-02-16T22:08:14.531Z,96092.59
2023-02-16T22:10:41.119Z,96096.91
2023-02-16T22:13:07.792Z,96088.00
2023-02-16T22:15:36.098Z,96096.75
2023-02-16T22:18:04.130Z,96090.38
2023-02-16T22:20:30.871Z,96085.72
2023-02-16T22:22:57.928Z,96085.63
2023-02-16T22:25:24.420Z,96088.34
2023-02-16T22:27:51.053Z,96084.59
2023-02-16T22:30:17.757Z,96080.31
2023-02-16T22:32:44.234Z,96081.91
2023-02-16T22:35:10.644Z,96078.53
2023-02-16T22:37:37.100Z,96085.97
2023-02-16T22:40:04.981Z,96084.84
2023-02-16T22:42:31.628Z,96085.19
2023-02-16T22:44:58.074Z,96077.19
2023-02-16T22:47:24.537Z,96083.50
2023-02-16T22:49:51.376Z,96082.38
2023-02-16T22:52:17.862Z,96089.25
2023-02-16T22:54:44.510Z,96088.28
2023-02-16T22:57:11.547Z,96075.75
2023-02-16T22:59:38.001Z,96076.72
2023-02-16T23:02:04.416Z,96080.09
2023-02-16T23:04:30.871Z,96086.84
2023-02-16T23:06:57.378Z,96087.28
2023-02-16T23:09:23.839Z,96082.31
2023-02-16T23:11:50.366Z,96068.06
2023-02-16T23:14:17.941Z,96074.03
2023-02-16T23:16:45.452Z,96072.13
2023-02-16T23:19:13.234Z,96080.63
2023-02-16T23:21:40.483Z,96072.59
2023-02-16T23:24:07.195Z,96072.41
2023-02-16T23:26:33.767Z,96066.31
2023-02-16T23:29:01.741Z,96078.78
2023-02-16T23:31:32.030Z,96077.84
2023-02-16T23:34:00.374Z,96074.22
2023-02-16T23:36:28.284Z,96079.91
2023-02-16T23:38:57.781Z,96077.25
2023-02-16T23:41:24.169Z,96077.56
2023-02-16T23:43:50.545Z,96073.97
2023-02-16T23:46:17.483Z,96078.78
2023-02-16T23:48:44.896Z,96071.31
2023-02-16T23:51:12.225Z,96039.72
2023-02-16T23:53:44.028Z,96063.97
2023-02-16T23:56:13.550Z,96071.34
2023-02-16T23:58:42.218Z,96068.53
